Time;durP1;ratioP1;P1;durP2;ratioP2;P2;SDS_P1;SDS_P2;PMS_P1;PMS_P2;Temp;Humidity;BMP_temperature;BMP_pressure;BME280_temperature;BME280_humidity;BME280_pressure;Samples;Min_cycle;Max_cycle;Signal;HPM_P1;HPM_P2
2023/10/18 00:00:58;;;;;;;2.50;1.80;;;3.10;99.90;;;;;;5008944;28;19913;-68
2023/10/18 00:03:26;;;;;;;2.65;1.42;;;3.10;99.90;;;;;;5014754;28;20088;-68
2023/10/18 00:05:52;;;;;;;2.10;1.45;;;3.10;99.90;;;;;;5011761;28;20104;-69
2023/10/18 00:08:17;;;;;;;3.65;1.63;;;3.00;99.90;;;;;;5008490;28;20052;-69
2023/10/18 00:10:44;;;;;;;2.30;1.70;;;3.00;99.90;;;;;;5011870;28;20053;-70
2023/10/18 00:13:11;;;;;;;1.83;1.20;;;3.00;99.90;;;;;;5014227;28;20053;-69
2023/10/18 00:15:38;;;;;;;3.05;1.52;;;3.00;99.90;;;;;;5012794;28;20121;-68
2023/10/18 00:18:04;;;;;;;4.00;1.33;;;3.00;99.90;;;;;;5015472;28;20398;-68
2023/10/18 00:20:30;;;;;;;1.35;1.17;;;3.00;99.90;;;;;;5015058;28;20041;-68
2023/10/18 00:22:57;;;;;;;2.35;1.70;;;2.90;99.90;;;;;;5020185;28;20081;-67
2023/10/18 00:25:23;;;;;;;2.88;1.98;;;2.90;99.90;;;;;;5014149;28;20675;-67
2023/10/18 00:27:49;;;;;;;3.97;1.95;;;2.80;99.90;;;;;;5006602;28;20053;-68
2023/10/18 00:30:18;;;;;;;4.80;1.75;;;2.80;99.90;;;;;;5007434;28;20478;-68
2023/10/18 00:32:46;;;;;;;3.20;1.67;;;2.80;99.90;;;;;;5012220;28;20112;-66
2023/10/18 00:35:18;;;;;;;3.08;1.42;;;2.90;99.90;;;;;;5010785;28;20041;-66
2023/10/18 00:37:44;;;;;;;3.58;1.73;;;2.90;99.90;;;;;;5007780;28;20045;-66
2023/10/18 00:43:11;;;;;;;2.45;1.20;;;2.90;99.90;;;;;;5005821;28;20041;-66
2023/10/18 00:45:43;;;;;;;2.55;1.38;;;2.80;99.90;;;;;;5004333;28;20030;-67
2023/10/18 00:48:11;;;;;;;2.47;1.48;;;2.80;99.90;;;;;;5013885;28;20033;-67
2023/10/18 00:50:41;;;;;;;3.05;1.80;;;2.70;99.90;;;;;;4998752;28;20056;-67
2023/10/18 00:53:08;;;;;;;4.75;1.80;;;2.50;99.90;;;;;;5007298;28;20517;-67
2023/10/18 00:55:34;;;;;;;3.30;1.38;;;2.50;99.90;;;;;;5008838;28;20111;-67
2023/10/18 00:58:05;;;;;;;2.35;1.73;;;2.60;99.90;;;;;;5010081;28;20053;-67
2023/10/18 01:00:31;;;;;;;2.35;1.45;;;2.60;99.90;;;;;;5005049;28;20052;-67
2023/10/18 01:02:59;;;;;;;1.65;1.40;;;2.60;99.90;;;;;;5011554;28;20034;-67
2023/10/18 01:05:25;;;;;;;3.40;2.00;;;2.50;99.90;;;;;;5005469;28;20070;-67
2023/10/18 01:07:53;;;;;;;3.53;1.60;;;2.50;99.90;;;;;;5007224;28;21252;-67
2023/10/18 01:10:23;;;;;;;2.38;1.83;;;2.40;99.90;;;;;;4998829;28;20070;-67
2023/10/18 01:12:52;;;;;;;2.67;1.75;;;2.40;99.90;;;;;;5007628;28;20069;-68
2023/10/18 01:15:19;;;;;;;3.05;2.00;;;2.30;99.90;;;;;;5002526;28;20338;-68
2023/10/18 01:17:47;;;;;;;4.90;2.42;;;2.40;99.90;;;;;;5011448;28;21368;-68
2023/10/18 01:20:38;;;;;;;3.65;1.90;;;2.40;99.90;;;;;;5002600;28;20021;-68
2023/10/18 01:23:01;;;;;;;3.47;2.05;;;2.40;99.90;;;;;;5002425;28;20069;-68
2023/10/18 01:25:28;;;;;;;9.45;4.35;;;2.40;99.90;;;;;;5003847;28;20582;-68
2023/10/18 01:27:53;;;;;;;7.65;4.35;;;2.40;99.90;;;;;;4999620;28;20129;-67
2023/10/18 01:30:19;;;;;;;11.43;4.40;;;2.30;99.90;;;;;;5004343;28;20041;-68
2023/10/18 01:32:46;;;;;;;8.35;4.47;;;2.30;99.90;;;;;;5009732;28;20056;-68
2023/10/18 01:35:13;;;;;;;9.20;3.78;;;2.30;99.90;;;;;;5005192;28;20109;-68
2023/10/18 01:37:39;;;;;;;3.90;2.30;;;2.30;99.90;;;;;;4993808;28;20048;-68
2023/10/18 01:40:41;;;;;;;9.93;4.60;;;2.30;99.90;;;;;;4991715;28;20041;-68
2023/10/18 01:43:10;;;;;;;7.22;2.70;;;2.30;99.90;;;;;;5005094;28;20099;-68
2023/10/18 01:45:39;;;;;;;2.22;1.48;;;2.30;99.90;;;;;;4999353;28;20056;-68
2023/10/18 01:48:08;;;;;;;1.02;1.00;;;2.40;99.90;;;;;;5006656;28;20037;-68
2023/10/18 01:50:35;;;;;;;2.42;1.38;;;2.40;99.90;;;;;;5005211;28;20053;-68
2023/10/18 01:53:00;;;;;;;3.03;1.15;;;2.20;99.90;;;;;;5002363;28;20044;-68
2023/10/18 01:55:28;;;;;;;1.80;1.05;;;2.10;99.90;;;;;;5008502;28;20061;-68
2023/10/18 01:57:53;;;;;;;1.75;1.00;;;2.00;99.90;;;;;;5002227;28;20057;-68
2023/10/18 02:00:25;;;;;;;1.50;1.00;;;2.00;99.90;;;;;;5008629;28;20057;-68
2023/10/18 02:02:50;;;;;;;2.88;1.23;;;2.10;99.90;;;;;;5015071;28;20120;-68
2023/10/18 02:05:16;;;;;;;3.35;1.83;;;2.10;99.90;;;;;;5017363;28;20102;-68
2023/10/18 02:07:47;;;;;;;3.95;1.92;;;2.00;99.90;;;;;;5007369;28;20091;-67
2023/10/18 02:10:20;;;;;;;3.95;2.78;;;1.90;99.90;;;;;;5003856;28;20044;-67
2023/10/18 02:12:46;;;;;;;5.50;3.13;;;1.80;99.90;;;;;;4994410;28;20040;-66
2023/10/18 02:15:12;;;;;;;6.05;3.53;;;1.80;99.90;;;;;;5007370;28;20037;-67
2023/10/18 02:17:39;;;;;;;6.82;2.92;;;1.90;99.90;;;;;;5007435;28;20045;-66
2023/10/18 02:20:14;;;;;;;3.22;1.80;;;2.00;99.90;;;;;;5008033;28;20026;-67
2023/10/18 02:22:44;;;;;;;3.25;1.52;;;2.10;99.90;;;;;;5008489;28;20033;-66
2023/10/18 02:25:23;;;;;;;3.00;1.58;;;2.10;99.90;;;;;;5013109;28;20402;-66
2023/10/18 02:27:50;;;;;;;1.45;1.15;;;2.00;99.90;;;;;;5005928;28;20045;-66
2023/10/18 02:30:19;;;;;;;3.13;1.30;;;2.00;99.90;;;;;;5001202;28;20041;-66
2023/10/18 02:32:48;;;;;;;1.88;1.08;;;2.00;99.90;;;;;;5007132;28;20061;-66
2023/10/18 02:35:16;;;;;;;1.77;1.25;;;2.00;99.90;;;;;;5005046;28;20033;-67
2023/10/18 02:37:43;;;;;;;2.13;1.23;;;1.90;99.90;;;;;;5013739;28;20033;-67
2023/10/18 02:40:09;;;;;;;2.00;1.15;;;1.80;99.90;;;;;;5005768;28;20408;-67
2023/10/18 02:42:36;;;;;;;4.93;1.52;;;1.70;99.90;;;;;;5003023;28;20149;-68
2023/10/18 02:45:12;;;;;;;2.92;1.40;;;1.60;99.90;;;;;;5000323;28;20056;-68
2023/10/18 02:47:37;;;;;;;3.50;1.50;;;1.50;99.90;;;;;;5008019;28;20132;-66
2023/10/18 02:50:04;;;;;;;1.15;1.05;;;1.60;99.90;;;;;;5007054;28;21583;-66
2023/10/18 02:52:30;;;;;;;1.30;1.20;;;1.70;99.90;;;;;;5004275;28;20044;-65
2023/10/18 02:54:57;;;;;;;3.40;1.42;;;1.70;99.90;;;;;;5007265;28;20038;-66
2023/10/18 02:57:24;;;;;;;1.65;1.30;;;1.70;99.90;;;;;;5006590;28;20076;-68
2023/10/18 02:59:50;;;;;;;3.83;1.60;;;1.70;99.90;;;;;;5003276;28;20072;-66
2023/10/18 03:02:15;;;;;;;6.20;5.57;;;1.60;99.90;;;;;;5009762;28;20053;-67
2023/10/18 03:04:47;;;;;;;3.15;2.42;;;1.50;99.90;;;;;;5015044;28;20029;-67
2023/10/18 03:07:13;;;;;;;6.18;4.57;;;1.40;99.90;;;;;;5008496;28;20061;-67
2023/10/18 03:09:39;;;;;;;7.93;6.00;;;1.40;99.90;;;;;;5011486;28;20045;-68
2023/10/18 03:12:13;;;;;;;9.10;5.97;;;1.40;99.90;;;;;;5005497;28;20054;-68
2023/10/18 03:14:41;;;;;;;10.35;7.28;;;1.40;99.90;;;;;;5009265;28;20029;-68
2023/10/18 03:17:15;;;;;;;3.50;2.65;;;1.60;99.90;;;;;;5006467;28;20050;-67
2023/10/18 03:19:44;;;;;;;3.28;2.28;;;1.70;99.90;;;;;;5010047;28;20049;-66
2023/10/18 03:22:10;;;;;;;3.78;2.60;;;1.70;99.90;;;;;;5003949;28;20041;-66
2023/10/18 03:24:36;;;;;;;3.78;2.92;;;1.60;99.90;;;;;;5010464;28;20040;-66
2023/10/18 03:27:08;;;;;;;4.20;2.42;;;1.60;99.90;;;;;;5010471;28;20204;-67
2023/10/18 03:29:37;;;;;;;2.83;1.65;;;1.70;99.90;;;;;;5006087;28;20088;-66
2023/10/18 03:32:06;;;;;;;2.17;1.52;;;1.70;99.90;;;;;;5006087;28;20042;-66
2023/10/18 03:34:35;;;;;;;2.30;1.40;;;1.70;99.90;;;;;;5010307;28;20038;-66
2023/10/18 03:37:04;;;;;;;2.63;1.60;;;1.60;99.90;;;;;;5004557;28;20034;-66
2023/10/18 03:39:30;;;;;;;2.05;1.42;;;1.60;99.90;;;;;;5012733;28;20061;-66
2023/10/18 03:42:00;;;;;;;1.92;1.17;;;1.60;99.90;;;;;;5005674;28;20058;-66
2023/10/18 03:44:26;;;;;;;4.97;1.27;;;1.50;99.90;;;;;;5010914;28;20057;-66
2023/10/18 03:47:11;;;;;;;3.15;1.38;;;1.40;99.90;;;;;;5003821;28;20041;-66
2023/10/18 03:49:37;;;;;;;1.50;1.20;;;1.40;99.90;;;;;;5007065;28;20636;-66
2023/10/18 03:52:16;;;;;;;1.77;1.58;;;1.40;99.90;;;;;;5001200;28;20080;-66
2023/10/18 03:57:30;;;;;;;2.97;1.92;;;1.50;99.90;;;;;;5007227;28;20052;-68
2023/10/18 03:59:58;;;;;;;4.70;2.35;;;1.50;99.90;;;;;;5010761;28;20938;-68
2023/10/18 04:04:57;;;;;;;3.15;1.88;;;1.50;99.90;;;;;;5008588;28;20794;-68
2023/10/18 04:07:24;;;;;;;5.25;1.80;;;1.50;99.90;;;;;;5008924;28;20025;-68
2023/10/18 04:12:27;;;;;;;1.60;1.40;;;1.50;99.90;;;;;;5010050;28;20084;-68
2023/10/18 04:14:56;;;;;;;2.70;1.75;;;1.50;99.90;;;;;;5007436;28;20114;-67
2023/10/18 04:20:46;;;;;;;2.63;1.42;;;1.20;99.90;;;;;;5010756;28;20029;-66
2023/10/18 04:22:51;;;;;;;2.72;1.38;;;1.20;99.90;;;;;;4990781;28;20505;-66
2023/10/18 04:25:25;;;;;;;2.92;2.00;;;1.30;99.90;;;;;;4998582;28;20104;-67
2023/10/18 04:27:57;;;;;;;3.40;2.28;;;1.20;99.90;;;;;;4994512;28;20442;-67
2023/10/18 04:30:23;;;;;;;;;;;1.10;99.90;;;;;;5007866;28;20041;-67
2023/10/18 04:33:52;;;;;;;3.90;1.85;;;1.10;99.90;;;;;;5002170;28;19920;-67
2023/10/18 04:35:45;;;;;;;3.00;1.85;;;1.10;99.90;;;;;;4987488;28;20514;-69
2023/10/18 04:38:29;;;;;;;4.13;2.22;;;1.00;99.90;;;;;;5011274;28;20575;-69
2023/10/18 04:41:04;;;;;;;27.63;15.15;;;1.00;99.90;;;;;;5008914;28;20026;-68
2023/10/18 04:43:32;;;;;;;48.90;26.52;;;0.90;99.90;;;;;;5005534;28;20052;-69
2023/10/18 04:46:04;;;;;;;193.10;92.85;;;0.90;99.90;;;;;;5000800;28;20034;-69
2023/10/18 04:51:27;;;;;;;6.10;3.80;;;1.00;99.90;;;;;;5009054;28;20049;-66
2023/10/18 04:53:54;;;;;;;5.55;3.42;;;1.00;99.90;;;;;;5006162;28;21520;-66
2023/10/18 04:56:19;;;;;;;5.13;3.17;;;1.00;99.90;;;;;;5010181;28;20049;-66
2023/10/18 04:58:45;;;;;;;2.50;2.30;;;1.00;99.90;;;;;;5010657;28;20048;-66
2023/10/18 05:01:13;;;;;;;2.35;1.73;;;0.90;99.90;;;;;;5005774;28;20041;-67
2023/10/18 05:03:43;;;;;;;2.35;1.60;;;0.80;99.90;;;;;;4992962;28;20482;-67
2023/10/18 05:06:11;;;;;;;2.80;1.83;;;0.80;99.90;;;;;;5000743;28;20983;-65
2023/10/18 05:08:37;;;;;;;3.25;1.95;;;0.90;99.90;;;;;;5005767;28;20068;-66
2023/10/18 05:13:48;;;;;;;3.88;2.30;;;1.00;99.90;;;;;;5002049;28;20064;-65
2023/10/18 05:16:16;;;;;;;15.13;2.30;;;0.90;99.90;;;;;;5001434;28;20052;-64
2023/10/18 05:18:44;;;;;;;4.78;2.45;;;0.80;99.90;;;;;;4999064;28;20694;-65
2023/10/18 05:21:10;;;;;;;11.73;3.70;;;0.90;99.90;;;;;;5000602;28;20271;-65
2023/10/18 05:23:36;;;;;;;6.70;3.47;;;1.00;99.90;;;;;;5005078;28;20061;-65
2023/10/18 05:29:17;;;;;;;9.07;4.43;;;0.90;99.90;;;;;;4999213;28;21259;-65
2023/10/18 05:31:48;;;;;;;11.32;4.43;;;1.00;99.90;;;;;;4998994;28;20057;-68
2023/10/18 05:36:54;;;;;;;6.68;3.70;;;1.20;99.90;;;;;;5006622;28;20095;-68
2023/10/18 05:41:59;;;;;;;9.98;4.45;;;1.30;99.90;;;;;;5002432;28;20052;-68
2023/10/18 05:44:29;;;;;;;9.45;3.67;;;1.30;99.90;;;;;;5012413;28;20180;-68
2023/10/18 05:46:57;;;;;;;8.63;3.40;;;1.30;99.90;;;;;;5010759;28;20037;-65
2023/10/18 05:49:27;;;;;;;7.57;2.47;;;1.30;99.90;;;;;;5008704;28;20068;-65
2023/10/18 05:51:56;;;;;;;4.35;2.45;;;1.40;99.90;;;;;;5002630;28;20041;-65
2023/10/18 05:54:24;;;;;;;6.00;2.20;;;1.30;99.90;;;;;;5012336;28;20470;-65
2023/10/18 05:56:50;;;;;;;4.35;2.72;;;1.30;99.90;;;;;;4996887;28;20822;-66
2023/10/18 06:01:58;;;;;;;3.67;2.47;;;1.40;99.90;;;;;;5011290;28;20050;-66
2023/10/18 06:04:24;;;;;;;17.88;6.63;;;1.40;99.90;;;;;;5015650;28;20096;-68
2023/10/18 06:07:09;;;;;;;12.57;5.45;;;1.40;99.90;;;;;;5006720;28;20064;-69
2023/10/18 06:09:46;;;;;;;12.40;4.07;;;1.60;99.90;;;;;;4998121;28;20029;-69
2023/10/18 06:12:22;;;;;;;10.98;5.68;;;1.60;99.90;;;;;;5010019;28;20049;-69
2023/10/18 06:14:51;;;;;;;30.55;9.93;;;1.70;99.90;;;;;;5012960;28;20560;-69
2023/10/18 06:17:22;;;;;;;17.98;7.25;;;1.70;99.90;;;;;;5013767;28;20152;-69
2023/10/18 06:19:50;;;;;;;10.40;4.47;;;1.80;99.90;;;;;;5012397;28;20034;-69
2023/10/18 06:22:28;;;;;;;9.52;4.20;;;1.90;99.90;;;;;;5008094;28;20041;-69
2023/10/18 06:24:57;;;;;;;9.25;4.72;;;2.00;99.90;;;;;;5012174;28;20037;-70
2023/10/18 06:27:23;;;;;;;13.60;6.47;;;2.00;99.90;;;;;;5007261;28;20149;-70
2023/10/18 06:29:55;;;;;;;35.90;15.32;;;2.00;99.90;;;;;;5016164;28;20034;-70
2023/10/18 06:32:25;;;;;;;28.45;11.70;;;2.20;99.90;;;;;;4998876;28;20915;-70
2023/10/18 06:34:57;;;;;;;18.60;10.23;;;2.20;99.90;;;;;;5012522;28;20034;-70
2023/10/18 06:37:24;;;;;;;16.02;8.90;;;2.30;99.90;;;;;;5002997;28;20061;-69
2023/10/18 06:39:58;;;;;;;14.68;6.75;;;2.40;99.90;;;;;;5011004;28;20049;-69
2023/10/18 06:42:26;;;;;;;14.13;6.90;;;2.50;99.90;;;;;;5010292;28;20258;-69
2023/10/18 06:44:56;;;;;;;23.63;11.68;;;2.70;99.90;;;;;;5009200;28;20516;-69
2023/10/18 06:47:30;;;;;;;23.00;11.20;;;3.00;99.90;;;;;;5005062;28;20828;-69
2023/10/18 06:50:03;;;;;;;31.40;14.57;;;3.10;99.90;;;;;;5012026;28;20558;-69
2023/10/18 06:52:40;;;;;;;25.00;12.32;;;3.30;99.90;;;;;;5006915;28;20140;-69
2023/10/18 06:55:06;;;;;;;29.67;13.20;;;3.40;99.90;;;;;;5008860;28;20061;-69
2023/10/18 06:57:35;;;;;;;34.38;14.45;;;3.60;99.90;;;;;;5005534;28;20141;-69
2023/10/18 07:00:07;;;;;;;35.88;15.13;;;3.70;99.90;;;;;;5006440;28;20105;-69
2023/10/18 07:02:32;;;;;;;28.23;13.77;;;3.90;99.90;;;;;;5002583;28;20103;-68
2023/10/18 07:05:00;;;;;;;16.85;8.90;;;4.20;99.90;;;;;;5009274;28;20041;-68
2023/10/18 07:07:26;;;;;;;20.67;9.15;;;4.40;99.90;;;;;;5012806;28;20807;-68
2023/10/18 07:09:58;;;;;;;29.95;13.27;;;4.70;99.90;;;;;;5013110;28;20446;-68
2023/10/18 07:12:26;;;;;;;33.03;14.38;;;5.10;99.90;;;;;;5000924;28;20528;-67
2023/10/18 07:15:00;;;;;;;25.92;12.10;;;5.40;99.90;;;;;;4993507;28;21266;-68
2023/10/18 07:17:25;;;;;;;17.02;9.77;;;5.70;99.90;;;;;;5014190;28;20050;-68
2023/10/18 07:19:57;;;;;;;14.10;7.25;;;6.00;99.90;;;;;;5009597;28;20056;-66
2023/10/18 07:25:26;;;;;;;8.45;5.00;;;6.40;99.90;;;;;;4969262;28;20153;-66
2023/10/18 07:27:55;;;;;;;9.07;5.95;;;6.70;99.90;;;;;;4997521;28;20044;-66
2023/10/18 07:30:29;;;;;;;9.77;5.63;;;7.00;99.90;;;;;;5002605;28;20426;-66
2023/10/18 07:32:57;;;;;;;7.03;5.20;;;7.20;99.90;;;;;;5003546;28;20045;-66
2023/10/18 07:35:30;;;;;;;9.75;5.13;;;7.50;99.90;;;;;;5001963;28;20048;-66
2023/10/18 07:37:56;;;;;;;8.50;5.10;;;7.70;99.90;;;;;;4994884;28;20045;-66
2023/10/18 07:40:22;;;;;;;11.88;4.82;;;7.80;99.90;;;;;;5007610;28;20049;-67
2023/10/18 07:42:51;;;;;;;8.60;5.22;;;7.90;99.90;;;;;;5003365;28;20041;-66
2023/10/18 07:45:19;;;;;;;6.05;5.20;;;8.10;99.90;;;;;;5004377;28;20195;-66
2023/10/18 07:47:45;;;;;;;7.85;5.35;;;8.20;99.90;;;;;;5002652;28;20045;-67
2023/10/18 07:52:55;;;;;;;8.07;5.18;;;8.60;99.90;;;;;;5005174;28;20068;-67
2023/10/18 07:55:22;;;;;;;8.25;5.53;;;8.70;99.90;;;;;;5011222;28;20144;-67
2023/10/18 07:57:48;;;;;;;6.35;4.93;;;8.80;99.90;;;;;;5022121;28;20060;-67
2023/10/18 08:00:25;;;;;;;10.57;4.45;;;9.00;99.90;;;;;;5004297;28;20138;-67
2023/10/18 08:02:52;;;;;;;6.97;4.75;;;9.20;99.90;;;;;;5003099;28;20049;-67
2023/10/18 08:05:23;;;;;;;6.82;4.88;;;9.50;99.90;;;;;;5004279;28;20053;-67
2023/10/18 08:07:52;;;;;;;11.50;4.80;;;9.70;99.90;;;;;;5012827;28;20469;-66
2023/10/18 08:10:21;;;;;;;5.80;5.10;;;10.00;99.90;;;;;;5010745;28;20067;-66
2023/10/18 08:12:57;;;;;;;7.30;4.75;;;10.20;99.90;;;;;;5012283;28;20052;-68
2023/10/18 08:15:23;;;;;;;5.82;4.93;;;10.10;99.90;;;;;;5013051;28;20045;-68
2023/10/18 08:17:50;;;;;;;7.63;4.40;;;10.10;99.90;;;;;;5004818;28;20044;-69
2023/10/18 08:22:51;;;;;;;6.88;4.82;;;10.40;99.90;;;;;;5007350;28;20037;-69
2023/10/18 08:25:31;;;;;;;8.15;5.53;;;10.60;99.90;;;;;;5008180;28;20049;-69
2023/10/18 08:27:58;;;;;;;6.38;5.20;;;10.80;99.90;;;;;;5010916;28;20034;-69
2023/10/18 08:30:24;;;;;;;6.95;4.60;;;10.80;99.90;;;;;;5003838;28;20065;-69
2023/10/18 08:32:53;;;;;;;7.68;4.70;;;10.70;99.90;;;;;;5000299;28;20129;-70
2023/10/18 08:35:20;;;;;;;9.43;5.28;;;10.70;99.90;;;;;;5001629;28;20037;-69
2023/10/18 08:37:46;;;;;;;6.72;4.63;;;10.80;99.90;;;;;;5006310;28;20053;-70
2023/10/18 08:40:16;;;;;;;6.32;4.82;;;11.00;99.90;;;;;;5006426;28;20179;-67
2023/10/18 08:42:51;;;;;;;5.47;4.57;;;11.30;99.90;;;;;;5003470;28;20154;-67
2023/10/18 08:45:23;;;;;;;5.25;4.25;;;11.40;99.90;;;;;;5008577;28;20553;-68
2023/10/18 08:47:56;;;;;;;5.88;4.53;;;11.60;99.90;;;;;;5011628;28;20033;-68
2023/10/18 08:50:25;;;;;;;5.85;3.92;;;11.80;99.90;;;;;;5012902;28;20049;-66
2023/10/18 08:52:51;;;;;;;7.03;4.30;;;11.90;99.90;;;;;;5004202;28;20037;-68
2023/10/18 08:55:43;;;;;;;11.23;4.40;;;12.00;99.90;;;;;;5009387;28;20057;-68
2023/10/18 08:58:12;;;;;;;6.25;4.15;;;12.10;99.90;;;;;;5001655;28;20648;-68
2023/10/18 09:03:08;;;;;;;5.18;4.15;;;12.20;99.90;;;;;;5002191;28;20050;-68
2023/10/18 09:05:35;;;;;;;7.40;3.88;;;12.30;99.90;;;;;;5009019;28;20041;-68
2023/10/18 09:08:05;;;;;;;5.40;4.13;;;12.40;99.90;;;;;;5003415;28;20033;-67
2023/10/18 09:11:20;;;;;;;4.55;4.07;;;12.50;99.90;;;;;;5009188;28;20034;-68
2023/10/18 09:18:16;;;;;;;5.38;4.35;;;12.40;99.90;;;;;;5005931;28;20050;-69
2023/10/18 09:20:42;;;;;;;7.88;5.65;;;12.40;99.90;;;;;;5005888;28;20702;-68
2023/10/18 09:23:20;;;;;;;4.35;3.75;;;12.50;99.90;;;;;;5005069;28;20083;-69
2023/10/18 09:25:49;;;;;;;6.95;3.95;;;12.60;99.90;;;;;;5005621;28;20038;-69
2023/10/18 09:28:25;;;;;;;6.05;4.63;;;12.80;99.90;;;;;;5005730;28;20080;-67
2023/10/18 09:31:00;;;;;;;5.82;4.63;;;13.00;99.90;;;;;;5006120;28;20045;-67
2023/10/18 09:33:27;;;;;;;5.57;4.50;;;13.10;99.90;;;;;;5003773;28;20034;-67
2023/10/18 09:36:01;;;;;;;7.20;5.07;;;13.30;99.90;;;;;;5004229;28;20037;-67
2023/10/18 09:38:39;;;;;;;4.65;3.53;;;13.50;99.90;;;;;;5009076;28;20037;-71
2023/10/18 09:41:05;;;;;;;5.10;3.53;;;13.60;99.90;;;;;;5004597;28;20061;-67
2023/10/18 09:43:37;;;;;;;6.20;3.58;;;13.80;99.90;;;;;;5007885;28;20034;-67
2023/10/18 09:46:04;;;;;;;4.25;3.38;;;13.90;99.90;;;;;;5010635;28;20041;-68
2023/10/18 09:48:38;;;;;;;5.18;4.05;;;13.90;99.90;;;;;;5009822;28;20049;-67
2023/10/18 09:51:08;;;;;;;4.80;2.90;;;14.00;99.90;;;;;;5015856;28;20055;-66
2023/10/18 09:53:49;;;;;;;6.03;3.20;;;14.00;99.90;;;;;;5011556;28;20045;-67
2023/10/18 09:56:17;;;;;;;3.97;2.78;;;14.00;99.90;;;;;;5010373;28;20038;-67
2023/10/18 09:58:46;;;;;;;5.15;2.90;;;14.10;99.90;;;;;;5015430;28;20033;-67
2023/10/18 10:01:14;;;;;;;4.82;2.85;;;14.20;99.90;;;;;;5011280;28;20045;-65
2023/10/18 10:03:52;;;;;;;4.75;2.92;;;14.30;99.90;;;;;;5014465;28;20030;-66
2023/10/18 10:06:21;;;;;;;3.15;2.63;;;14.40;99.90;;;;;;5011533;28;20037;-68
2023/10/18 10:08:54;;;;;;;2.60;2.40;;;14.50;99.90;;;;;;5007535;28;20227;-68
2023/10/18 10:11:22;;;;;;;2.75;1.88;;;14.60;99.90;;;;;;5002045;28;20045;-67
2023/10/18 10:13:52;;;;;;;2.75;1.73;;;14.70;96.90;;;;;;5008139;28;20142;-68
2023/10/18 10:16:24;;;;;;;2.88;1.80;;;14.70;97.30;;;;;;5014886;28;20483;-68
2023/10/18 10:18:52;;;;;;;2.13;1.70;;;14.70;96.90;;;;;;5013324;28;20128;-67
2023/10/18 10:21:21;;;;;;;2.15;1.60;;;14.70;95.40;;;;;;5011681;28;20132;-67
2023/10/18 10:23:55;;;;;;;4.68;1.70;;;14.70;95.90;;;;;;5013349;28;20100;-67
2023/10/18 10:26:27;;;;;;;3.05;1.65;;;14.80;94.00;;;;;;5015418;28;20125;-66
2023/10/18 10:31:57;;;;;;;2.83;1.65;;;14.80;93.90;;;;;;5009749;28;20073;-66
2023/10/18 10:34:27;;;;;;;2.28;1.65;;;14.90;93.50;;;;;;5008063;28;20045;-66
2023/10/18 10:37:19;;;;;;;3.90;1.60;;;15.10;93.40;;;;;;5008562;28;20030;-66
2023/10/18 10:39:52;;;;;;;7.80;2.28;;;15.10;92.40;;;;;;5013016;28;20454;-66
2023/10/18 10:42:41;;;;;;;5.97;2.05;;;15.10;93.10;;;;;;5014590;28;20078;-68
2023/10/18 10:45:30;;;;;;;4.32;1.88;;;15.20;91.80;;;;;;5010389;28;20202;-68
2023/10/18 10:47:55;;;;;;;18.38;2.38;;;15.00;92.10;;;;;;5009342;28;20072;-70
2023/10/18 10:50:45;;;;;;;2.60;2.05;;;15.00;91.90;;;;;;5010024;28;20123;-68
2023/10/18 10:53:28;;;;;;;3.15;1.77;;;15.20;91.10;;;;;;5009363;28;20055;-68
2023/10/18 10:55:54;;;;;;;12.05;2.17;;;15.20;91.30;;;;;;5010354;28;20107;-64
2023/10/18 10:58:22;;;;;;;2.65;1.77;;;15.20;92.10;;;;;;5006761;28;20132;-69
2023/10/18 11:01:06;;;;;;;4.80;1.70;;;15.30;91.60;;;;;;5011302;28;20128;-68
2023/10/18 11:03:54;;;;;;;2.88;1.85;;;15.50;90.20;;;;;;5003887;28;20110;-69
2023/10/18 11:06:24;;;;;;;3.08;1.67;;;15.60;90.20;;;;;;5008425;28;20030;-67
2023/10/18 11:08:54;;;;;;;2.88;2.00;;;15.70;89.70;;;;;;5009340;28;20062;-68
2023/10/18 11:11:26;;;;;;;2.78;1.48;;;15.60;86.00;;;;;;5012619;28;20064;-68
2023/10/18 11:13:52;;;;;;;;;;;15.50;86.20;;;;;;5009218;28;20029;-67
2023/10/18 11:16:20;;;;;;;6.82;2.05;;;15.50;84.70;;;;;;5014807;28;19920;-68
2023/10/18 11:18:49;;;;;;;2.25;1.73;;;15.40;83.50;;;;;;5008558;28;20129;-65
2023/10/18 11:21:25;;;;;;;3.08;1.90;;;15.30;85.80;;;;;;5007283;28;20045;-66
2023/10/18 11:24:01;;;;;;;3.53;2.22;;;15.30;87.50;;;;;;5009983;28;20128;-66
2023/10/18 11:26:27;;;;;;;3.22;2.28;;;15.30;88.00;;;;;;5015273;28;20518;-66
2023/10/18 11:28:56;;;;;;;4.05;2.30;;;15.40;86.50;;;;;;5005685;28;20483;-66
2023/10/18 11:31:26;;;;;;;2.63;2.08;;;15.40;84.50;;;;;;5011364;28;20081;-66
2023/10/18 11:34:07;;;;;;;3.60;2.25;;;15.40;87.00;;;;;;5004787;28;20128;-66
2023/10/18 11:36:34;;;;;;;2.53;2.33;;;15.50;87.30;;;;;;5006598;28;20029;-68
2023/10/18 11:39:07;;;;;;;3.92;1.70;;;15.60;87.20;;;;;;5012491;28;20041;-68
2023/10/18 11:41:34;;;;;;;2.67;2.08;;;15.70;87.30;;;;;;5005391;28;20042;-67
2023/10/18 11:44:07;;;;;;;8.18;2.88;;;16.00;86.40;;;;;;5015543;28;20029;-67
2023/10/18 11:46:56;;;;;;;4.30;2.40;;;16.10;85.60;;;;;;5016720;28;20033;-68
2023/10/18 11:49:32;;;;;;;4.50;3.45;;;15.90;84.50;;;;;;5018132;28;20068;-69
2023/10/18 11:51:58;;;;;;;7.03;2.80;;;15.90;86.30;;;;;;5010621;28;20060;-68
2023/10/18 11:54:32;;;;;;;7.15;3.08;;;16.00;84.80;;;;;;5012403;28;20041;-67
2023/10/18 11:57:02;;;;;;;5.43;2.90;;;15.90;85.40;;;;;;5017298;28;20715;-69
2023/10/18 11:59:28;;;;;;;5.97;4.07;;;15.70;86.30;;;;;;5013947;28;20840;-68
2023/10/18 12:02:04;;;;;;;7.38;4.05;;;15.70;86.20;;;;;;5013970;28;20057;-68
2023/10/18 12:04:37;;;;;;;4.45;2.78;;;15.80;86.20;;;;;;5011654;28;20292;-69
2023/10/18 12:07:03;;;;;;;5.68;3.38;;;15.90;85.10;;;;;;5003370;28;20033;-69
2023/10/18 12:09:42;;;;;;;14.80;4.22;;;15.90;85.70;;;;;;5009405;28;20042;-69
2023/10/18 12:12:13;;;;;;;6.47;3.10;;;15.90;86.90;;;;;;5011222;28;20049;-69
2023/10/18 12:14:42;;;;;;;4.00;3.38;;;16.00;87.20;;;;;;5011613;28;20076;-68
2023/10/18 12:17:10;;;;;;;5.03;3.72;;;16.10;86.40;;;;;;5009821;28;20410;-66
2023/10/18 12:19:37;;;;;;;3.80;2.88;;;16.00;86.90;;;;;;5017606;28;20033;-68
2023/10/18 12:22:04;;;;;;;7.57;4.28;;;15.90;87.10;;;;;;5015921;28;20458;-67
2023/10/18 12:24:33;;;;;;;8.68;4.28;;;16.00;85.10;;;;;;5012350;28;20104;-67
2023/10/18 12:27:15;;;;;;;9.00;3.58;;;16.10;85.70;;;;;;5016280;28;20132;-67
2023/10/18 12:29:43;;;;;;;5.35;3.25;;;16.20;86.30;;;;;;5011221;28;20046;-67
2023/10/18 12:32:27;;;;;;;6.57;3.50;;;16.30;86.70;;;;;;5012300;28;20473;-66
2023/10/18 12:35:06;;;;;;;5.38;3.67;;;16.30;84.40;;;;;;5011674;28;20044;-66
2023/10/18 12:37:40;;;;;;;6.05;3.45;;;16.40;86.20;;;;;;5011113;28;20048;-66
2023/10/18 12:40:28;;;;;;;5.78;3.40;;;16.40;85.00;;;;;;5013089;28;20068;-65
2023/10/18 12:42:58;;;;;;;9.95;3.17;;;16.40;84.40;;;;;;5012051;28;20056;-65
2023/10/18 12:45:24;;;;;;;5.43;3.85;;;16.40;85.10;;;;;;5012205;28;20029;-65
2023/10/18 12:47:51;;;;;;;4.70;3.47;;;16.50;83.20;;;;;;5010537;28;20746;-65
2023/10/18 12:50:21;;;;;;;3.95;3.13;;;16.60;84.90;;;;;;5013406;28;20096;-66
2023/10/18 12:52:51;;;;;;;7.72;3.28;;;16.60;83.50;;;;;;5007293;28;20080;-66
2023/10/18 12:55:43;;;;;;;4.07;3.15;;;16.70;81.80;;;;;;5012611;28;20052;-66
2023/10/18 12:58:06;;;;;;;4.15;2.90;;;16.50;81.10;;;;;;5006477;28;21626;-67
2023/10/18 13:00:42;;;;;;;7.82;3.70;;;16.40;79.80;;;;;;5005892;28;20494;-66
2023/10/18 13:03:21;;;;;;;6.20;3.67;;;16.30;80.90;;;;;;5006888;28;20033;-66
2023/10/18 13:05:51;;;;;;;4.00;3.33;;;16.40;80.30;;;;;;5010627;28;20053;-65
2023/10/18 13:08:22;;;;;;;6.18;3.70;;;16.30;79.70;;;;;;5008421;28;20507;-66
2023/10/18 13:10:59;;;;;;;4.07;3.13;;;16.20;79.50;;;;;;5016758;28;20045;-68
2023/10/18 13:13:24;;;;;;;5.00;3.25;;;16.10;79.60;;;;;;5018239;28;20601;-67
2023/10/18 13:15:50;;;;;;;5.85;3.95;;;16.10;80.60;;;;;;5008311;28;20057;-68
2023/10/18 13:18:16;;;;;;;9.27;5.45;;;16.20;79.30;;;;;;5011846;28;20063;-66
2023/10/18 13:20:45;;;;;;;8.32;3.78;;;16.20;79.20;;;;;;5011128;28;20115;-68
2023/10/18 13:23:12;;;;;;;10.75;5.65;;;16.20;80.30;;;;;;5006884;28;20145;-67
2023/10/18 13:25:49;;;;;;;13.00;6.78;;;16.30;81.00;;;;;;5015342;28;20048;-67
2023/10/18 13:28:24;;;;;;;9.48;3.95;;;16.40;77.60;;;;;;5015216;28;20041;-65
2023/10/18 13:30:51;;;;;;;6.68;3.45;;;16.30;80.60;;;;;;5010351;28;20053;-67
2023/10/18 13:33:18;;;;;;;4.03;2.70;;;16.50;80.60;;;;;;5010424;28;20064;-67
2023/10/18 13:35:49;;;;;;;3.88;3.33;;;16.70;80.20;;;;;;5015299;28;20048;-69
2023/10/18 13:38:15;;;;;;;10.35;6.40;;;16.80;78.00;;;;;;5004382;28;20037;-67
2023/10/18 13:40:43;;;;;;;4.70;3.45;;;16.90;75.90;;;;;;5011973;28;20026;-69
2023/10/18 13:43:09;;;;;;;4.80;3.03;;;17.00;75.20;;;;;;5014192;28;20043;-67
2023/10/18 13:45:37;;;;;;;5.90;3.17;;;16.90;74.90;;;;;;5005440;28;20674;-66
2023/10/18 13:48:03;;;;;;;8.07;3.20;;;16.80;76.10;;;;;;5001589;28;20045;-66
2023/10/18 13:50:38;;;;;;;3.58;2.78;;;16.80;75.30;;;;;;5006220;28;20069;-67
2023/10/18 13:53:06;;;;;;;2.92;2.63;;;16.80;74.30;;;;;;5000482;28;20609;-67
2023/10/18 13:55:32;;;;;;;3.75;3.33;;;16.70;75.20;;;;;;5004017;28;21834;-67